In Rescue
 
Open Full Screen Window  High Contrast Mode
Wind Gusting 00 knots
03
September 19, 2019 5:50 PM EDT
Weather Information
Wind Direction
  110 °
Wind Speed
  03 kt (3 mph)
Wind Gust
  00 kt (0 mph)
Altimeter
30.09 in
Visibility
10 SM
Temperature
26° C
79° F
Dewpoint
12° C
54° F
Humidity
42%
1hr Rain Fall
00.00 in.
24hr Rain Fall
00.00 in.
Sky Condition
Clear
VFR

METAR KY70 192150Z AUTO 11003KT 10SM CLR 26/12 A3009 RMK AO2 T02570124

FAA Disclaimer: The data displayed is for advisory purposes only and is not to be used for flight planning or operations.